createdAt,value
2023-01-10T00:00:03.923Z,67.07
2023-01-10T00:04:08.020Z,66.39
2023-01-10T00:08:10.021Z,66.27
2023-01-10T00:12:22.871Z,67.43
2023-01-10T00:16:23.575Z,68.20
2023-01-10T00:20:26.148Z,68.23
2023-01-10T00:24:26.335Z,69.01
2023-01-10T00:28:26.283Z,68.08
2023-01-10T00:32:26.285Z,67.55
2023-01-10T00:36:28.867Z,66.83
2023-01-10T00:40:28.923Z,67.23
2023-01-10T00:44:26.890Z,66.43
2023-01-10T00:48:27.272Z,66.19
2023-01-10T00:52:29.806Z,65.71
2023-01-10T00:56:30.033Z,65.62
2023-01-10T01:00:30.377Z,64.78
2023-01-10T01:04:34.103Z,65.41
2023-01-10T01:08:37.069Z,65.13
2023-01-10T01:12:37.154Z,64.16
2023-01-10T01:16:37.268Z,64.50
2023-01-10T01:20:37.529Z,64.22
2023-01-10T01:24:40.117Z,64.22
2023-01-10T01:28:40.732Z,64.20
2023-01-10T01:32:41.268Z,64.11
2023-01-10T01:36:41.430Z,63.80
2023-01-10T01:40:45.100Z,63.89
2023-01-10T01:44:45.160Z,64.71
2023-01-10T01:48:47.167Z,64.23
2023-01-10T01:52:48.141Z,63.93
2023-01-10T01:56:56.532Z,63.39
2023-01-10T02:00:58.590Z,63.83
2023-01-10T02:05:05.006Z,63.68
2023-01-10T02:09:15.529Z,63.28
2023-01-10T02:13:22.106Z,63.98
2023-01-10T02:17:22.121Z,62.89
2023-01-10T02:22:13.576Z,63.19
2023-01-10T02:26:50.007Z,63.31
2023-01-10T02:31:47.788Z,63.72
2023-01-10T02:36:22.933Z,63.35
2023-01-10T02:40:31.963Z,63.45
2023-01-10T02:44:40.386Z,62.89
2023-01-10T02:48:40.496Z,64.21
2023-01-10T02:52:43.179Z,63.20
2023-01-10T02:57:18.389Z,63.82
2023-01-10T03:01:28.876Z,62.93
2023-01-10T03:05:44.868Z,62.58
2023-01-10T03:09:59.344Z,63.60
2023-01-10T03:14:04.052Z,63.45
2023-01-10T03:18:11.123Z,63.97
2023-01-10T03:22:14.032Z,64.20
2023-01-10T03:26:20.396Z,63.98
2023-01-10T03:30:31.124Z,63.82
2023-01-10T03:34:31.550Z,63.29
2023-01-10T03:38:44.659Z,63.63
2023-01-10T03:43:09.391Z,63.74
2023-01-10T03:47:15.275Z,63.35
2023-01-10T03:51:17.085Z,63.10
2023-01-10T03:55:23.506Z,63.16
2023-01-10T03:59:30.180Z,63.45
2023-01-10T04:03:30.255Z,62.68
2023-01-10T04:07:30.473Z,62.76
2023-01-10T04:11:30.514Z,62.22
2023-01-10T04:15:33.916Z,61.72
2023-01-10T04:19:34.305Z,61.76
2023-01-10T04:23:34.434Z,61.90
2023-01-10T04:27:34.461Z,62.01
2023-01-10T04:31:37.580Z,62.38
2023-01-10T04:35:37.791Z,62.26
2023-01-10T04:39:37.956Z,62.04
2023-01-10T04:43:38.086Z,61.64
2023-01-10T04:47:40.753Z,61.64
2023-01-10T04:51:41.090Z,61.66
2023-01-10T04:55:41.103Z,61.83
2023-01-10T04:59:41.221Z,62.24
2023-01-10T05:03:44.122Z,62.83
2023-01-10T05:07:44.732Z,63.15
2023-01-10T05:11:44.868Z,63.51
2023-01-10T05:15:44.919Z,63.48
2023-01-10T05:19:47.606Z,63.60
2023-01-10T05:23:47.725Z,63.49
2023-01-10T05:27:47.798Z,63.67
2023-01-10T05:31:47.880Z,63.45
2023-01-10T05:35:50.662Z,63.25
2023-01-10T05:39:50.904Z,63.62
2023-01-10T05:43:50.929Z,64.13
2023-01-10T05:47:51.058Z,64.80
2023-01-10T05:51:53.664Z,64.85
2023-01-10T05:55:59.463Z,64.93
2023-01-10T05:59:59.635Z,64.87
2023-01-10T06:04:00.887Z,65.34
2023-01-10T06:08:03.624Z,65.87
2023-01-10T06:12:03.764Z,65.95
2023-01-10T06:16:04.075Z,66.23
2023-01-10T06:20:05.594Z,65.17
2023-01-10T06:24:09.667Z,64.77
2023-01-10T06:28:10.365Z,65.48
2023-01-10T06:32:10.396Z,65.50
2023-01-10T06:36:11.757Z,65.40
2023-01-10T06:40:15.449Z,65.57
2023-01-10T06:44:15.531Z,64.69
2023-01-10T06:48:15.590Z,64.23
2023-01-10T06:52:15.805Z,64.09
2023-01-10T06:56:18.556Z,64.13
2023-01-10T07:00:20.549Z,64.27
2023-01-10T07:04:20.552Z,64.61
2023-01-10T07:08:20.630Z,63.59
2023-01-10T07:12:23.345Z,63.56
2023-01-10T07:16:23.575Z,64.11
2023-01-10T07:20:23.767Z,63.18
2023-01-10T07:24:23.953Z,63.55
2023-01-10T07:28:26.995Z,63.69
2023-01-10T07:32:27.298Z,63.79
2023-01-10T07:36:27.469Z,63.14
2023-01-10T07:40:27.963Z,62.95
2023-01-10T07:44:30.572Z,63.02
2023-01-10T07:48:30.851Z,62.75
2023-01-10T07:52:30.886Z,63.05
2023-01-10T07:56:31.011Z,62.83
2023-01-10T08:00:33.677Z,62.36
2023-01-10T08:04:33.850Z,62.88
2023-01-10T08:08:35.969Z,62.90
2023-01-10T08:12:36.463Z,62.81
2023-01-10T08:16:39.152Z,63.23
2023-01-10T08:20:39.315Z,62.54
2023-01-10T08:24:39.508Z,62.63
2023-01-10T08:28:39.626Z,61.98
2023-01-10T08:32:42.294Z,61.43
2023-01-10T08:36:42.346Z,62.24
2023-01-10T08:40:42.389Z,61.86
2023-01-10T08:44:42.547Z,61.15
2023-01-10T08:48:45.239Z,61.09
2023-01-10T08:52:45.279Z,60.60
2023-01-10T08:56:45.280Z,60.21
2023-01-10T09:00:45.364Z,60.20
2023-01-10T09:04:48.033Z,60.74
2023-01-10T09:08:48.275Z,60.62
2023-01-10T09:12:57.437Z,60.24
2023-01-10T09:16:57.692Z,60.02
2023-01-10T09:21:00.582Z,59.39
2023-01-10T09:25:00.679Z,59.52
2023-01-10T09:29:00.715Z,59.80
2023-01-10T09:33:02.177Z,60.25
2023-01-10T09:37:04.855Z,59.97
2023-01-10T09:41:31.246Z,60.48
2023-01-10T09:45:47.342Z,60.13
2023-01-10T09:49:58.886Z,59.77
2023-01-10T09:54:12.482Z,59.81
2023-01-10T09:58:18.479Z,59.43
2023-01-10T10:02:29.441Z,59.74
2023-01-10T10:06:29.540Z,59.15
2023-01-10T10:10:43.505Z,59.32
2023-01-10T10:15:10.530Z,58.78
2023-01-10T10:19:26.020Z,58.18
2023-01-10T10:24:13.608Z,58.80
2023-01-10T10:28:46.633Z,59.01
2023-01-10T10:33:12.312Z,59.35
2023-01-10T10:37:19.724Z,58.98
2023-01-10T10:41:33.162Z,58.50
2023-01-10T10:45:44.405Z,58.09
2023-01-10T10:49:52.294Z,57.72
2023-01-10T10:53:52.374Z,57.66
2023-01-10T10:58:00.474Z,56.70
2023-01-10T11:02:04.015Z,56.55
2023-01-10T11:06:04.918Z,57.46
2023-01-10T11:10:21.914Z,58.13
2023-01-10T11:14:46.907Z,59.22
2023-01-10T11:19:10.745Z,59.17
2023-01-10T11:23:10.877Z,58.69
2023-01-10T11:27:21.775Z,58.48
2023-01-10T11:31:30.873Z,57.78
2023-01-10T11:35:38.127Z,57.69
2023-01-10T11:39:38.396Z,56.53
2023-01-10T11:43:41.829Z,57.19
2023-01-10T11:47:45.922Z,56.34
2023-01-10T11:51:54.462Z,56.58
2023-01-10T11:55:55.691Z,56.82
2023-01-10T11:59:59.166Z,55.86
2023-01-10T12:04:00.732Z,55.59
2023-01-10T12:08:10.695Z,54.90
2023-01-10T12:12:32.563Z,53.75
2023-01-10T12:16:34.698Z,53.60
2023-01-10T12:20:47.777Z,52.78
2023-01-10T12:24:55.898Z,52.57
2023-01-10T12:29:01.772Z,51.83
2023-01-10T12:33:07.280Z,52.22
2023-01-10T12:37:19.892Z,51.55
2023-01-10T12:41:45.256Z,52.88
2023-01-10T12:45:55.967Z,52.92
2023-01-10T12:50:02.097Z,52.88
2023-01-10T12:54:08.275Z,52.56
2023-01-10T12:58:23.198Z,52.57
2023-01-10T13:02:30.559Z,52.08
2023-01-10T13:06:36.435Z,52.17
2023-01-10T13:10:40.333Z,51.57
2023-01-10T13:14:54.444Z,51.25
2023-01-10T13:19:09.112Z,51.68
2023-01-10T13:23:30.556Z,52.90
2023-01-10T13:27:35.939Z,52.05
2023-01-10T13:31:38.853Z,52.17
2023-01-10T13:35:45.729Z,51.88
2023-01-10T13:39:57.539Z,52.05
2023-01-10T13:44:12.145Z,50.92
2023-01-10T13:48:31.335Z,51.70
2023-01-10T13:52:36.115Z,52.24
2023-01-10T13:56:40.899Z,52.74
2023-01-10T14:01:06.789Z,52.60
2023-01-10T14:05:19.076Z,52.89
2023-01-10T14:09:44.822Z,52.79
2023-01-10T14:13:54.042Z,53.33
2023-01-10T14:18:03.202Z,53.65
2023-01-10T14:22:07.265Z,54.34
2023-01-10T14:26:09.311Z,53.61
2023-01-10T14:30:18.961Z,54.11
2023-01-10T14:34:26.561Z,53.71
2023-01-10T14:38:33.745Z,53.90
2023-01-10T14:42:34.356Z,54.07
2023-01-10T14:46:47.152Z,55.21
2023-01-10T14:50:47.467Z,55.73
2023-01-10T14:54:51.444Z,56.18
2023-01-10T14:58:51.635Z,56.36
2023-01-10T15:02:53.440Z,56.10
2023-01-10T15:07:00.139Z,56.96
2023-01-10T15:11:08.164Z,56.92
2023-01-10T15:15:16.202Z,56.77
2023-01-10T15:19:22.727Z,56.61
2023-01-10T15:23:27.185Z,57.09
2023-01-10T15:27:31.791Z,56.58
2023-01-10T15:31:33.616Z,56.47
2023-01-10T15:35:36.897Z,56.34
2023-01-10T15:39:42.127Z,56.31
2023-01-10T15:43:45.266Z,56.92
2023-01-10T15:48:03.225Z,56.48
2023-01-10T15:52:03.769Z,56.19
2023-01-10T15:56:19.423Z,56.19
2023-01-10T16:00:23.318Z,55.31
2023-01-10T16:04:23.758Z,55.10
2023-01-10T16:08:29.169Z,55.08
2023-01-10T16:12:48.959Z,55.08
2023-01-10T16:16:51.599Z,55.76
2023-01-10T16:20:54.999Z,55.31
2023-01-10T16:24:55.247Z,55.81
2023-01-10T16:28:55.527Z,55.80
2023-01-10T16:33:00.057Z,55.93
2023-01-10T16:37:00.225Z,56.12
2023-01-10T16:41:23.059Z,55.71
2023-01-10T16:45:23.128Z,56.01
2023-01-10T16:49:26.419Z,56.33
2023-01-10T16:53:26.727Z,56.40
2023-01-10T16:57:26.957Z,57.34
2023-01-10T17:01:32.207Z,57.31
2023-01-10T17:05:38.435Z,57.06
2023-01-10T17:09:39.729Z,56.43
2023-01-10T17:13:45.530Z,57.22
2023-01-10T17:17:46.839Z,57.74
2023-01-10T17:21:49.608Z,56.87
2023-01-10T17:25:50.750Z,56.90
2023-01-10T17:29:51.724Z,57.03
2023-01-10T17:33:51.913Z,57.37
2023-01-10T17:37:56.833Z,57.74
2023-01-10T17:41:57.887Z,58.79
2023-01-10T17:46:00.181Z,58.85
2023-01-10T17:50:00.539Z,58.65
2023-01-10T17:54:03.405Z,59.39
2023-01-10T17:58:03.804Z,59.72
2023-01-10T18:02:04.071Z,59.63
2023-01-10T18:06:07.670Z,59.78
2023-01-10T18:10:12.410Z,60.52
2023-01-10T18:14:27.678Z,60.65
2023-01-10T18:18:28.110Z,60.18
2023-01-10T18:22:43.598Z,60.04
2023-01-10T18:26:46.580Z,60.49
2023-01-10T18:30:46.810Z,60.63
2023-01-10T18:34:47.242Z,60.79
2023-01-10T18:38:48.775Z,61.12
2023-01-10T18:42:55.083Z,61.13
2023-01-10T18:46:55.218Z,61.20
2023-01-10T18:50:56.572Z,61.00
2023-01-10T18:54:57.555Z,60.84
2023-01-10T18:59:01.791Z,61.37
2023-01-10T19:03:02.430Z,61.64
2023-01-10T19:07:02.525Z,62.40
2023-01-10T19:11:13.315Z,62.69
2023-01-10T19:15:17.157Z,61.85
2023-01-10T19:19:17.300Z,62.28
2023-01-10T19:23:17.446Z,61.45
2023-01-10T19:27:18.424Z,61.53
2023-01-10T19:31:24.228Z,61.91
2023-01-10T19:35:24.391Z,62.18
2023-01-10T19:39:24.676Z,62.98
2023-01-10T19:43:26.012Z,63.34
2023-01-10T19:47:29.038Z,63.59
2023-01-10T19:51:29.116Z,63.51
2023-01-10T19:55:29.805Z,62.73
2023-01-10T19:59:31.727Z,63.76
2023-01-10T20:03:34.763Z,63.70
2023-01-10T20:07:34.879Z,63.33
2023-01-10T20:11:41.917Z,62.69
2023-01-10T20:15:42.004Z,62.97
2023-01-10T20:19:44.690Z,62.82
2023-01-10T20:23:45.801Z,62.68
2023-01-10T20:27:46.919Z,63.26
2023-01-10T20:31:52.702Z,63.37
2023-01-10T20:36:04.627Z,63.06
2023-01-10T20:40:05.292Z,63.37
2023-01-10T20:44:05.713Z,63.81
2023-01-10T20:48:05.786Z,63.42
2023-01-10T20:52:08.457Z,64.13
2023-01-10T20:56:12.399Z,64.02
2023-01-10T21:00:15.766Z,63.58
2023-01-10T21:04:15.941Z,63.28
2023-01-10T21:08:18.637Z,64.21
2023-01-10T21:12:23.237Z,63.27
2023-01-10T21:16:25.619Z,63.15
2023-01-10T21:20:28.597Z,62.61
2023-01-10T21:24:31.544Z,62.25
2023-01-10T21:28:32.429Z,61.91
2023-01-10T21:32:32.642Z,62.12
2023-01-10T21:36:32.719Z,61.88
2023-01-10T21:40:37.056Z,61.60
2023-01-10T21:44:37.305Z,61.13
2023-01-10T21:48:37.405Z,61.77
2023-01-10T21:52:37.831Z,61.30
2023-01-10T21:56:40.534Z,61.01
2023-01-10T22:00:40.774Z,60.87
2023-01-10T22:04:41.039Z,60.80
2023-01-10T22:08:41.084Z,60.38
2023-01-10T22:12:43.730Z,61.23
2023-01-10T22:16:43.846Z,61.26
2023-01-10T22:20:47.629Z,61.57
2023-01-10T22:24:48.760Z,61.47
2023-01-10T22:28:51.539Z,62.29
2023-01-10T22:32:51.698Z,62.34
2023-01-10T22:36:51.900Z,62.35
2023-01-10T22:40:51.951Z,62.18
2023-01-10T22:44:54.582Z,62.47
2023-01-10T22:48:55.567Z,62.55
2023-01-10T22:52:55.696Z,62.35
2023-01-10T22:56:55.775Z,61.91
2023-01-10T23:00:59.156Z,61.97
2023-01-10T23:04:59.231Z,61.08
2023-01-10T23:08:59.289Z,61.14
2023-01-10T23:13:01.101Z,61.31
2023-01-10T23:17:03.740Z,61.44
2023-01-10T23:21:05.110Z,61.60
2023-01-10T23:25:05.521Z,61.78
2023-01-10T23:29:05.587Z,61.73
2023-01-10T23:33:08.393Z,61.83
2023-01-10T23:37:08.774Z,61.84
2023-01-10T23:41:09.706Z,61.70
2023-01-10T23:45:12.262Z,62.63
2023-01-10T23:49:15.093Z,63.12
2023-01-10T23:53:15.224Z,62.69
2023-01-10T23:57:15.308Z,62.49
